Time;durP1;ratioP1;P1;durP2;ratioP2;P2;SDS_P1;SDS_P2;PMS_P1;PMS_P2;Temp;Humidity;BMP_temperature;BMP_pressure;BME280_temperature;BME280_humidity;BME280_pressure;Samples;Min_cycle;Max_cycle;Signal;HPM_P1;HPM_P2
2021/05/16 00:01:24;;;;;;;7.75;1.33;;;10.80;99.90;;;;;;5037477;28;20172;-84
2021/05/16 00:03:50;;;;;;;4.70;1.30;;;10.80;99.90;;;;;;5030107;28;20036;-81
2021/05/16 00:06:16;;;;;;;5.35;1.38;;;10.80;99.90;;;;;;5054923;28;20037;-84
2021/05/16 00:08:42;;;;;;;4.53;1.20;;;12.50;99.90;;;;;;5050552;28;20032;-79
2021/05/16 00:11:08;;;;;;;5.97;1.35;;;10.80;99.90;;;;;;5033393;28;20031;-81
2021/05/16 00:13:37;;;;;;;7.90;2.25;;;10.70;99.90;;;;;;5062566;28;20104;-81
2021/05/16 00:16:03;;;;;;;3.92;1.10;;;10.70;99.90;;;;;;5054801;28;20060;-81
2021/05/16 00:18:28;;;;;;;5.88;1.08;;;10.70;99.90;;;;;;5036951;28;20025;-80
2021/05/16 00:20:54;;;;;;;4.25;1.00;;;10.70;99.90;;;;;;5034652;28;20029;-81
2021/05/16 00:23:19;;;;;;;6.97;1.70;;;10.60;99.90;;;;;;5040469;28;20025;-83
2021/05/16 00:25:45;;;;;;;6.15;1.70;;;11.40;99.90;;;;;;5040425;28;20068;-81
2021/05/16 00:28:11;;;;;;;4.32;1.30;;;10.60;99.90;;;;;;5042215;28;20040;-83
2021/05/16 00:30:38;;;;;;;4.75;1.30;;;12.20;99.90;;;;;;5055782;28;20024;-82
2021/05/16 00:33:04;;;;;;;3.83;1.10;;;12.80;99.90;;;;;;5055955;28;20040;-82
2021/05/16 00:35:31;;;;;;;4.97;1.30;;;10.60;99.90;;;;;;5053487;28;20036;-82
2021/05/16 00:38:00;;;;;;;5.93;1.20;;;10.50;99.90;;;;;;5016240;28;20056;-84
2021/05/16 00:40:26;;;;;;;4.07;1.45;;;10.50;99.90;;;;;;5034698;28;20029;-84
2021/05/16 00:42:51;;;;;;;3.00;1.35;;;10.40;99.90;;;;;;5039768;28;20082;-81
2021/05/16 00:45:20;;;;;;;3.90;1.25;;;10.50;99.90;;;;;;5035644;28;20029;-81
2021/05/16 00:47:52;;;;;;;2.38;1.10;;;10.40;99.90;;;;;;5038236;28;20056;-83
2021/05/16 00:50:20;;;;;;;2.20;1.17;;;10.50;99.90;;;;;;5051832;28;20032;-80
2021/05/16 00:52:46;;;;;;;2.60;1.10;;;10.60;99.90;;;;;;5041568;28;20029;-81
2021/05/16 00:55:14;;;;;;;3.17;1.13;;;10.50;99.90;;;;;;5035363;28;20055;-81
2021/05/16 00:57:41;;;;;;;3.30;1.20;;;10.40;99.90;;;;;;5060706;28;20083;-81
2021/05/16 01:00:09;;;;;;;4.32;1.30;;;10.40;99.90;;;;;;5041937;28;20028;-80
2021/05/16 01:02:37;;;;;;;4.10;1.48;;;10.40;99.90;;;;;;5034531;28;20036;-81
2021/05/16 01:05:05;;;;;;;3.88;1.40;;;10.40;99.90;;;;;;5042955;28;20033;-82
2021/05/16 01:07:30;;;;;;;3.45;1.17;;;10.30;99.90;;;;;;5053741;28;20407;-78
2021/05/16 01:09:56;;;;;;;2.45;1.30;;;10.30;99.90;;;;;;5030344;28;20026;-82
2021/05/16 01:12:30;;;;;;;5.15;1.60;;;10.30;99.90;;;;;;5022947;28;20034;-80
2021/05/16 01:14:57;;;;;;;6.18;1.30;;;10.20;99.90;;;;;;4998576;28;20082;-83
2021/05/16 01:17:23;;;;;;;2.90;1.30;;;10.30;99.90;;;;;;4969563;28;21263;-81
2021/05/16 01:19:48;;;;;;;4.28;1.15;;;13.20;99.90;;;;;;4968341;28;20455;-81
2021/05/16 01:22:14;;;;;;;5.05;1.70;;;;;;;;;;5003860;28;20030;-80
2021/05/16 01:24:43;;;;;;;3.13;1.27;;;10.30;99.90;;;;;;4992599;28;20034;-83
2021/05/16 01:27:10;;;;;;;5.05;1.55;;;10.30;99.90;;;;;;5009634;28;20036;-82
2021/05/16 01:29:36;;;;;;;4.90;1.33;;;12.00;99.90;;;;;;5011257;28;20037;-82
2021/05/16 01:32:02;;;;;;;4.15;1.73;;;10.40;99.90;;;;;;4991414;28;20022;-83
2021/05/16 01:34:27;;;;;;;4.70;1.48;;;10.40;99.90;;;;;;4989404;28;20102;-83
2021/05/16 01:36:53;;;;;;;5.78;1.80;;;10.40;99.90;;;;;;5004043;28;20242;-81
2021/05/16 01:39:19;;;;;;;5.18;1.85;;;10.50;99.90;;;;;;5010140;28;20034;-83
2021/05/16 01:41:44;;;;;;;3.83;1.80;;;10.40;99.90;;;;;;4994809;28;20061;-81
2021/05/16 01:44:12;;;;;;;3.33;1.80;;;10.30;99.90;;;;;;4992272;28;20034;-81
2021/05/16 01:46:39;;;;;;;4.30;1.80;;;10.70;99.90;;;;;;5004261;28;22438;-82
2021/05/16 01:49:05;;;;;;;5.45;2.20;;;10.20;99.90;;;;;;5006231;28;20037;-80
2021/05/16 01:51:30;;;;;;;4.18;1.77;;;10.30;99.90;;;;;;4994599;28;20033;-84
2021/05/16 01:53:56;;;;;;;4.20;1.90;;;10.30;99.90;;;;;;4989467;28;20033;-84
2021/05/16 01:56:27;;;;;;;5.88;1.88;;;13.70;99.90;;;;;;5004280;28;20030;-84
2021/05/16 01:58:55;;;;;;;4.38;1.92;;;10.30;99.90;;;;;;4995063;28;20444;-84
2021/05/16 02:01:21;;;;;;;3.55;1.58;;;10.30;99.90;;;;;;5006510;28;20397;-81
2021/05/16 02:03:47;;;;;;;4.47;2.10;;;10.40;99.90;;;;;;5003805;28;20022;-78
2021/05/16 02:06:14;;;;;;;3.83;1.70;;;10.40;99.90;;;;;;4992778;28;20036;-81
2021/05/16 02:08:41;;;;;;;4.47;2.20;;;10.40;99.90;;;;;;4990921;28;20042;-82
2021/05/16 02:11:08;;;;;;;4.40;1.98;;;12.40;99.90;;;;;;4992071;28;20516;-84
2021/05/16 02:13:38;;;;;;;3.75;2.10;;;10.50;99.90;;;;;;4990846;28;20033;-81
2021/05/16 02:16:05;;;;;;;3.97;1.83;;;12.80;99.90;;;;;;4988355;28;20038;-83
2021/05/16 02:18:30;;;;;;;4.93;2.17;;;10.60;99.90;;;;;;4993260;28;20033;-82
2021/05/16 02:20:56;;;;;;;5.50;2.40;;;10.60;99.90;;;;;;4991160;28;20061;-82
2021/05/16 02:23:22;;;;;;;7.15;2.40;;;10.60;99.90;;;;;;4989328;28;20037;-84
2021/05/16 02:25:50;;;;;;;4.55;1.80;;;10.60;99.90;;;;;;4993973;28;20501;-81
2021/05/16 02:28:17;;;;;;;5.85;2.05;;;10.60;99.90;;;;;;5008790;28;20026;-82
2021/05/16 02:30:42;;;;;;;6.10;2.22;;;10.60;99.90;;;;;;4987763;28;20057;-83
2021/05/16 02:33:08;;;;;;;6.53;2.38;;;10.50;99.90;;;;;;4988900;28;20056;-82
2021/05/16 02:35:34;;;;;;;6.53;2.75;;;;;;;;;;4991493;28;20026;-83
2021/05/16 02:38:00;;;;;;;6.80;3.05;;;10.50;99.90;;;;;;4989257;28;20022;-84
2021/05/16 02:40:25;;;;;;;6.18;3.40;;;10.50;99.90;;;;;;4988917;28;20052;-81
2021/05/16 02:42:51;;;;;;;7.15;3.40;;;10.60;99.90;;;;;;5007070;28;20037;-81
2021/05/16 02:45:17;;;;;;;7.72;3.92;;;10.50;99.90;;;;;;4987403;28;20496;-84
2021/05/16 02:47:42;;;;;;;8.90;3.60;;;10.40;99.90;;;;;;4992496;28;20037;-81
2021/05/16 02:50:10;;;;;;;6.70;4.10;;;10.60;99.90;;;;;;4985220;28;20037;-83
2021/05/16 02:52:36;;;;;;;5.93;3.45;;;10.60;99.90;;;;;;5009058;28;20053;-81
2021/05/16 02:55:05;;;;;;;5.68;3.70;;;10.60;99.90;;;;;;4989836;28;20289;-79
2021/05/16 02:57:31;;;;;;;5.10;3.22;;;10.60;99.90;;;;;;4988653;28;20039;-81
2021/05/16 02:59:56;;;;;;;8.15;3.05;;;10.60;99.90;;;;;;5007220;28;20029;-84
2021/05/16 03:02:22;;;;;;;6.07;3.03;;;;;;;;;;5006596;28;20104;-84
2021/05/16 03:04:48;;;;;;;10.05;3.45;;;10.60;99.90;;;;;;4989593;28;20026;-83
2021/05/16 03:07:13;;;;;;;13.05;5.68;;;10.60;99.90;;;;;;4991909;28;20029;-82
2021/05/16 03:09:39;;;;;;;8.07;3.03;;;10.60;99.90;;;;;;5001608;28;20029;-80
2021/05/16 03:12:06;;;;;;;6.75;3.00;;;10.60;99.90;;;;;;4990206;28;20209;-80
2021/05/16 03:14:32;;;;;;;8.02;3.20;;;10.60;99.90;;;;;;5006211;28;20454;-81
2021/05/16 03:16:58;;;;;;;7.65;2.22;;;10.60;99.90;;;;;;5011995;28;20443;-80
2021/05/16 03:19:25;;;;;;;8.50;2.55;;;10.70;99.90;;;;;;4992328;28;20018;-81
2021/05/16 03:21:51;;;;;;;4.72;2.25;;;10.70;99.90;;;;;;4986513;28;20026;-84
2021/05/16 03:24:17;;;;;;;6.53;2.72;;;10.60;99.90;;;;;;4991791;28;20097;-86
2021/05/16 03:26:43;;;;;;;4.40;1.80;;;;;;;;;;5008423;28;20032;-82
2021/05/16 03:29:09;;;;;;;5.55;1.67;;;10.80;99.90;;;;;;5003812;28;20547;-82
2021/05/16 03:31:35;;;;;;;4.60;2.10;;;10.70;99.90;;;;;;5008884;28;20049;-80
2021/05/16 03:34:03;;;;;;;4.05;1.55;;;10.80;99.90;;;;;;4991270;28;20508;-82
2021/05/16 03:36:29;;;;;;;8.77;1.50;;;10.70;99.90;;;;;;4994394;28;20066;-84
2021/05/16 03:38:54;;;;;;;3.17;1.80;;;10.70;99.90;;;;;;4992432;28;20045;-80
2021/05/16 03:41:20;;;;;;;4.97;1.88;;;12.90;99.90;;;;;;4988224;28;20148;-82
2021/05/16 03:43:46;;;;;;;3.08;1.60;;;10.70;99.90;;;;;;4990397;28;20033;-80
2021/05/16 03:46:12;;;;;;;5.90;1.73;;;10.70;99.90;;;;;;4992119;28;20431;-80
2021/05/16 03:48:38;;;;;;;3.08;1.40;;;10.80;99.90;;;;;;4994264;28;20022;-80
2021/05/16 03:51:05;;;;;;;5.63;1.50;;;10.80;99.90;;;;;;4999225;28;20021;-83
2021/05/16 03:53:31;;;;;;;5.38;1.80;;;10.80;99.90;;;;;;4991985;28;20038;-81
2021/05/16 03:55:57;;;;;;;4.40;1.50;;;;;;;;;;5009329;28;20045;-77
2021/05/16 03:58:23;;;;;;;4.90;1.40;;;10.70;99.90;;;;;;5014844;28;20049;-81
2021/05/16 04:00:49;;;;;;;2.72;1.20;;;10.70;99.90;;;;;;5013261;28;20038;-82
2021/05/16 04:03:15;;;;;;;6.57;1.40;;;10.70;99.90;;;;;;5013802;28;20050;-82
2021/05/16 04:05:40;;;;;;;5.22;1.27;;;10.50;99.90;;;;;;4996296;28;20026;-80
2021/05/16 04:08:06;;;;;;;9.18;1.75;;;;;;;;;;4994199;28;20034;-82
2021/05/16 04:10:33;;;;;;;3.35;1.15;;;10.60;99.90;;;;;;4985630;28;20853;-82
2021/05/16 04:12:58;;;;;;;5.35;1.50;;;10.60;99.90;;;;;;5008732;28;20073;-81
2021/05/16 04:15:25;;;;;;;7.38;1.67;;;10.60;99.90;;;;;;4987201;28;20030;-80
2021/05/16 04:17:50;;;;;;;3.08;1.27;;;10.50;99.90;;;;;;4991332;28;20064;-81
2021/05/16 04:20:16;;;;;;;2.92;1.13;;;10.60;99.90;;;;;;5011072;28;20026;-81
2021/05/16 04:22:42;;;;;;;4.65;1.10;;;;;;;;;;5014119;28;20392;-83
2021/05/16 04:25:08;;;;;;;5.35;1.40;;;10.60;99.90;;;;;;5013382;28;20045;-82
2021/05/16 04:27:34;;;;;;;4.75;1.60;;;10.60;99.90;;;;;;5013835;28;20037;-80
2021/05/16 04:29:59;;;;;;;4.32;1.20;;;10.90;99.90;;;;;;4997960;28;20029;-80
2021/05/16 04:32:25;;;;;;;4.32;1.30;;;10.60;99.90;;;;;;5002147;28;20029;-82
2021/05/16 04:34:51;;;;;;;3.50;1.10;;;10.50;99.90;;;;;;4991664;28;20076;-83
2021/05/16 04:37:16;;;;;;;3.17;1.30;;;10.60;99.90;;;;;;5012115;28;20490;-80
2021/05/16 04:39:42;;;;;;;6.20;1.40;;;10.60;99.90;;;;;;4998614;28;20041;-80
2021/05/16 04:42:08;;;;;;;6.13;1.10;;;10.50;99.90;;;;;;4997963;28;20026;-81
2021/05/16 04:44:34;;;;;;;5.20;1.08;;;10.50;99.90;;;;;;4974979;28;20088;-82
2021/05/16 04:46:59;;;;;;;5.50;1.08;;;13.00;99.90;;;;;;4997697;28;20033;-81
2021/05/16 04:49:25;;;;;;;2.63;0.85;;;10.40;99.90;;;;;;4997031;28;20025;-81
2021/05/16 04:51:51;;;;;;;4.53;1.70;;;11.90;99.90;;;;;;5011354;28;20052;-80
2021/05/16 04:54:16;;;;;;;3.63;1.00;;;10.40;99.90;;;;;;5010642;28;20026;-80
2021/05/16 04:56:42;;;;;;;3.50;1.00;;;10.40;99.90;;;;;;4993949;28;20037;-81
2021/05/16 04:59:09;;;;;;;2.45;1.30;;;10.50;99.90;;;;;;5002520;28;20441;-82
2021/05/16 05:01:38;;;;;;;2.65;0.98;;;10.50;99.90;;;;;;5009491;28;20033;-80
2021/05/16 05:04:04;;;;;;;2.47;1.13;;;10.50;99.90;;;;;;4991967;28;20040;-80
2021/05/16 05:06:30;;;;;;;3.05;1.10;;;10.50;99.90;;;;;;4993445;28;20030;-82
2021/05/16 05:08:59;;;;;;;6.43;1.23;;;10.50;99.90;;;;;;5010722;28;20018;-80
2021/05/16 05:11:24;;;;;;;3.70;1.42;;;10.50;99.90;;;;;;5010709;28;20022;-83
2021/05/16 05:13:50;;;;;;;4.90;1.08;;;10.60;99.90;;;;;;5010215;28;20121;-84
2021/05/16 05:16:16;;;;;;;6.13;1.40;;;10.70;99.90;;;;;;5012292;28;20038;-81
2021/05/16 05:18:41;;;;;;;4.45;1.23;;;10.70;99.90;;;;;;5012315;28;20459;-82
2021/05/16 05:21:08;;;;;;;5.07;1.75;;;10.70;99.90;;;;;;5015313;28;20424;-81
2021/05/16 05:23:34;;;;;;;3.92;1.70;;;10.70;99.90;;;;;;5006339;28;20378;-82
2021/05/16 05:26:00;;;;;;;8.05;1.90;;;10.70;99.90;;;;;;5011956;28;20045;-80
2021/05/16 05:28:25;;;;;;;6.47;1.90;;;10.70;99.90;;;;;;4994728;28;20030;-81
2021/05/16 05:30:51;;;;;;;3.97;1.85;;;10.80;99.90;;;;;;5009263;28;20064;-80
2021/05/16 05:33:19;;;;;;;7.63;2.42;;;10.80;99.90;;;;;;5008715;28;20030;-80
2021/05/16 05:35:45;;;;;;;9.77;2.47;;;10.90;99.90;;;;;;4991686;28;20026;-81
2021/05/16 05:38:11;;;;;;;9.18;2.50;;;10.90;99.90;;;;;;4989681;28;20034;-82
2021/05/16 05:40:37;;;;;;;6.70;2.45;;;;;;;;;;5004278;28;20045;-84
2021/05/16 05:43:02;;;;;;;6.43;2.90;;;11.10;99.90;;;;;;4994977;28;20531;-81
2021/05/16 05:45:29;;;;;;;8.52;2.40;;;;;;;;;;5006878;28;20026;-81
2021/05/16 05:47:54;;;;;;;5.32;2.55;;;11.20;99.90;;;;;;5012815;28;20026;-78
2021/05/16 05:50:20;;;;;;;9.80;3.13;;;11.20;99.90;;;;;;4992105;28;20033;-84
2021/05/16 05:52:46;;;;;;;7.18;3.00;;;11.20;99.90;;;;;;5009871;28;20037;-80
2021/05/16 05:55:12;;;;;;;8.18;2.97;;;11.30;99.90;;;;;;5009639;28;20042;-81
2021/05/16 05:57:38;;;;;;;8.65;3.10;;;11.30;99.90;;;;;;4991102;28;20065;-81
2021/05/16 06:00:05;;;;;;;8.88;3.50;;;11.40;99.90;;;;;;4991897;28;20033;-84
2021/05/16 06:02:30;;;;;;;15.13;5.00;;;11.50;99.90;;;;;;5007774;28;20030;-81
2021/05/16 06:04:56;;;;;;;7.75;3.25;;;11.50;99.90;;;;;;5007124;28;20030;-81
2021/05/16 06:07:22;;;;;;;7.30;3.00;;;;;;;;;;5012493;28;20022;-79
2021/05/16 06:09:50;;;;;;;11.27;3.45;;;11.80;99.90;;;;;;5012304;28;20022;-80
2021/05/16 06:12:15;;;;;;;9.25;3.45;;;11.90;99.90;;;;;;5008875;28;20044;-81
2021/05/16 06:14:42;;;;;;;8.35;3.25;;;11.80;99.90;;;;;;5008472;28;20059;-81
2021/05/16 06:17:07;;;;;;;7.68;2.67;;;11.80;99.90;;;;;;4997856;28;20018;-81
2021/05/16 06:19:33;;;;;;;7.88;2.50;;;11.90;99.90;;;;;;4997219;28;20173;-83
2021/05/16 06:21:58;;;;;;;10.13;2.50;;;12.00;99.90;;;;;;4997122;28;20037;-82
2021/05/16 06:24:24;;;;;;;7.75;2.33;;;14.50;99.90;;;;;;5012051;28;20030;-82
2021/05/16 06:26:50;;;;;;;6.63;2.35;;;12.40;99.90;;;;;;5004619;28;20030;-80
2021/05/16 06:29:16;;;;;;;6.10;1.80;;;12.40;99.90;;;;;;4993238;28;20050;-81
2021/05/16 06:31:43;;;;;;;8.07;1.70;;;12.50;99.90;;;;;;5006766;28;20089;-84
2021/05/16 06:34:09;;;;;;;9.07;1.90;;;12.30;99.90;;;;;;5011945;28;20026;-82
2021/05/16 06:36:36;;;;;;;10.27;2.42;;;12.20;99.90;;;;;;5013978;28;20099;-81
2021/05/16 06:39:05;;;;;;;10.50;2.30;;;12.30;99.90;;;;;;4997124;28;20113;-79
2021/05/16 06:41:33;;;;;;;7.07;2.28;;;12.30;99.90;;;;;;4992647;28;20050;-81
2021/05/16 06:43:59;;;;;;;6.32;2.40;;;12.40;99.90;;;;;;4992907;28;20058;-81
2021/05/16 06:46:26;;;;;;;5.22;1.67;;;12.50;99.90;;;;;;4994049;28;20048;-83
2021/05/16 06:48:52;;;;;;;6.13;1.70;;;12.60;99.90;;;;;;5010142;28;20026;-82
2021/05/16 06:51:17;;;;;;;9.48;2.17;;;13.80;99.90;;;;;;4988484;28;20116;-79
2021/05/16 06:53:43;;;;;;;6.03;1.67;;;12.80;99.90;;;;;;4990395;28;20145;-80
2021/05/16 06:56:12;;;;;;;8.02;1.73;;;15.20;99.90;;;;;;5004094;28;20049;-85
2021/05/16 06:58:38;;;;;;;5.10;1.60;;;13.00;99.90;;;;;;4990795;28;20508;-82
2021/05/16 07:01:03;;;;;;;6.50;1.70;;;12.70;99.90;;;;;;4990570;28;20033;-80
2021/05/16 07:03:29;;;;;;;9.70;1.70;;;12.60;99.90;;;;;;5002531;28;20041;-83
2021/05/16 07:05:55;;;;;;;9.88;1.88;;;;;;;;;;5008668;28;20066;-81
2021/05/16 07:08:21;;;;;;;7.65;2.10;;;;;;;;;;5005244;28;20366;-81
2021/05/16 07:10:47;;;;;;;6.10;1.40;;;12.50;99.90;;;;;;5005003;28;20385;-80
2021/05/16 07:13:12;;;;;;;5.95;1.60;;;12.50;99.90;;;;;;5009580;28;20469;-81
2021/05/16 07:15:38;;;;;;;9.77;1.73;;;;;;;;;;5004470;28;20034;-80
2021/05/16 07:18:04;;;;;;;11.20;2.70;;;12.60;99.90;;;;;;4990229;28;20030;-81
2021/05/16 07:20:29;;;;;;;5.70;1.92;;;12.80;99.90;;;;;;5007459;28;20095;-85
2021/05/16 07:22:55;;;;;;;9.07;1.70;;;13.00;99.90;;;;;;4991019;28;20492;-82
2021/05/16 07:25:21;;;;;;;8.45;1.88;;;13.10;99.90;;;;;;4989273;28;20023;-81
2021/05/16 07:27:47;;;;;;;7.30;2.00;;;13.30;99.90;;;;;;5009623;28;20038;-84
2021/05/16 07:30:14;;;;;;;12.77;2.20;;;16.00;99.90;;;;;;5004597;28;20030;-81
2021/05/16 07:32:40;;;;;;;9.50;1.73;;;13.20;99.90;;;;;;5003603;28;20037;-83
2021/05/16 07:35:06;;;;;;;6.55;1.73;;;13.20;99.90;;;;;;5004261;28;20118;-83
2021/05/16 07:37:32;;;;;;;7.10;2.42;;;13.00;99.90;;;;;;5012572;28;20018;-82
2021/05/16 07:39:58;;;;;;;7.30;1.40;;;13.00;99.90;;;;;;5004496;28;20037;-81
2021/05/16 07:42:24;;;;;;;10.32;1.88;;;13.60;99.90;;;;;;5009122;28;20113;-81
2021/05/16 07:44:50;;;;;;;10.50;2.13;;;13.00;99.90;;;;;;4990876;28;20034;-80
2021/05/16 07:47:16;;;;;;;6.75;1.50;;;13.10;99.90;;;;;;4991450;28;20033;-80
2021/05/16 07:49:41;;;;;;;6.72;1.52;;;13.10;99.90;;;;;;5002390;28;20109;-84
2021/05/16 07:52:07;;;;;;;7.60;1.95;;;13.00;99.90;;;;;;4993727;28;20112;-83
2021/05/16 07:54:32;;;;;;;9.60;2.75;;;13.10;99.90;;;;;;5003289;28;20029;-83
2021/05/16 07:56:58;;;;;;;10.75;1.95;;;14.20;99.90;;;;;;4987659;28;20030;-80
2021/05/16 07:59:24;;;;;;;8.80;1.75;;;13.20;99.90;;;;;;5006625;28;20259;-83
2021/05/16 08:01:50;;;;;;;5.75;1.38;;;13.30;99.90;;;;;;4990835;28;20032;-82
2021/05/16 08:04:16;;;;;;;6.00;1.80;;;13.40;99.90;;;;;;4988101;28;20026;-82
2021/05/16 08:06:42;;;;;;;4.57;1.40;;;;;;;;;;5005276;28;20393;-81
2021/05/16 08:09:08;;;;;;;8.52;1.83;;;;;;;;;;4980652;28;20037;-81
2021/05/16 08:11:34;;;;;;;5.57;1.83;;;13.50;99.90;;;;;;4985204;28;20504;-82
2021/05/16 08:13:59;;;;;;;8.35;1.65;;;13.60;99.90;;;;;;4981308;28;20022;-81
2021/05/16 08:16:25;;;;;;;7.68;1.88;;;13.70;99.90;;;;;;5000996;28;20037;-82
2021/05/16 08:18:52;;;;;;;6.72;2.30;;;14.00;99.90;;;;;;4988774;28;20034;-79
2021/05/16 08:21:19;;;;;;;5.88;1.33;;;14.10;99.90;;;;;;4984097;28;20028;-78
2021/05/16 08:23:45;;;;;;;11.02;2.15;;;;;;;;;;4989456;28;20382;-79
2021/05/16 08:26:10;;;;;;;8.23;2.70;;;15.00;99.90;;;;;;4999152;28;20580;-81
2021/05/16 08:28:36;;;;;;;10.82;1.92;;;16.20;99.90;;;;;;5002969;28;20028;-82
2021/05/16 08:31:02;;;;;;;7.32;1.92;;;14.60;99.90;;;;;;5002953;28;20080;-82
2021/05/16 08:33:27;;;;;;;5.07;1.50;;;14.70;99.90;;;;;;4989430;28;20032;-82
2021/05/16 08:35:53;;;;;;;7.45;2.22;;;14.90;99.90;;;;;;5005832;28;20451;-79
2021/05/16 08:38:21;;;;;;;9.68;1.67;;;15.10;99.80;;;;;;4989847;28;20070;-81
2021/05/16 08:40:47;;;;;;;8.38;2.08;;;15.10;99.10;;;;;;4989404;28;20058;-82
2021/05/16 08:43:13;;;;;;;7.25;1.67;;;15.60;99.30;;;;;;5000252;28;20607;-80
2021/05/16 08:45:38;;;;;;;8.13;1.77;;;15.20;99.50;;;;;;4989498;28;20084;-80
2021/05/16 08:48:05;;;;;;;10.07;2.00;;;15.20;98.30;;;;;;4987028;28;20040;-80
2021/05/16 08:50:30;;;;;;;6.28;1.60;;;15.20;98.70;;;;;;4987687;28;20034;-81
2021/05/16 08:52:56;;;;;;;8.02;1.40;;;15.90;99.00;;;;;;4989658;28;20116;-81
2021/05/16 08:55:22;;;;;;;9.38;1.60;;;14.80;99.50;;;;;;4989186;28;20041;-83
2021/05/16 08:57:48;;;;;;;8.45;1.65;;;15.70;99.90;;;;;;5004734;28;20191;-81
2021/05/16 09:00:17;;;;;;;5.88;1.33;;;14.60;99.80;;;;;;4991451;28;20057;-84
2021/05/16 09:03:03;;;;;;;10.93;1.65;;;14.40;99.90;;;;;;5002307;28;20280;-79
2021/05/16 09:05:30;;;;;;;4.90;1.30;;;14.30;99.80;;;;;;5005449;28;20128;-78
2021/05/16 09:08:00;;;;;;;7.97;1.85;;;15.90;99.90;;;;;;4990315;28;20485;-80
2021/05/16 09:10:26;;;;;;;8.55;1.75;;;14.40;99.90;;;;;;4985962;28;20044;-80
2021/05/16 09:13:05;;;;;;;4.35;1.52;;;15.70;99.90;;;;;;4989339;28;20449;-85
2021/05/16 09:15:32;;;;;;;4.93;1.48;;;14.20;99.90;;;;;;5003168;28;20033;-81
2021/05/16 09:17:57;;;;;;;8.30;1.67;;;14.30;99.90;;;;;;5004327;28;20038;-82
2021/05/16 09:20:24;;;;;;;8.68;1.60;;;14.10;99.90;;;;;;5000239;28;20129;-80
2021/05/16 09:22:51;;;;;;;9.30;1.98;;;14.00;99.90;;;;;;4983382;28;20029;-80
2021/05/16 09:25:34;;;;;;;9.90;1.83;;;13.80;99.90;;;;;;4983563;28;20094;-80
2021/05/16 09:28:13;;;;;;;11.07;2.30;;;13.90;99.90;;;;;;5005785;28;20025;-79
2021/05/16 09:30:41;;;;;;;5.30;1.55;;;13.70;99.90;;;;;;5021092;28;20030;-80
2021/05/16 09:33:12;;;;;;;12.70;1.80;;;13.80;99.90;;;;;;4991806;28;20025;-80
2021/05/16 09:35:39;;;;;;;7.22;1.60;;;14.20;99.90;;;;;;5000459;28;20041;-81
2021/05/16 09:38:05;;;;;;;7.00;1.73;;;14.90;99.90;;;;;;5003477;28;20034;-81
2021/05/16 09:40:41;;;;;;;6.30;1.60;;;15.20;99.90;;;;;;4989760;28;20447;-80
2021/05/16 09:43:18;;;;;;;8.43;1.92;;;15.20;99.90;;;;;;4996130;28;20679;-82
2021/05/16 09:46:00;;;;;;;9.65;2.92;;;15.50;99.90;;;;;;4987170;28;20037;-80
2021/05/16 09:48:36;;;;;;;9.82;1.40;;;15.80;99.40;;;;;;5005645;28;20024;-80
2021/05/16 09:51:24;;;;;;;7.95;1.50;;;15.90;98.30;;;;;;5003328;28;20077;-83
2021/05/16 09:54:01;;;;;;;14.10;2.63;;;16.20;97.70;;;;;;5002018;28;20431;-80
2021/05/16 09:56:30;;;;;;;7.07;1.58;;;16.20;98.00;;;;;;5004443;28;20396;-80
2021/05/16 09:58:59;;;;;;;7.68;1.80;;;16.40;97.20;;;;;;4999044;28;20043;-83
2021/05/16 10:01:26;;;;;;;6.13;1.45;;;16.30;97.20;;;;;;4987933;28;20492;-80
2021/05/16 10:03:53;;;;;;;14.88;3.67;;;16.10;97.40;;;;;;5002895;28;20025;-81
2021/05/16 10:06:21;;;;;;;6.82;2.20;;;16.00;97.50;;;;;;4987445;28;20516;-81
2021/05/16 10:08:50;;;;;;;7.43;1.90;;;15.80;97.10;;;;;;5000485;28;20565;-83
2021/05/16 10:11:22;;;;;;;8.82;2.80;;;15.80;96.70;;;;;;4994214;28;20034;-82
2021/05/16 10:13:58;;;;;;;7.93;2.50;;;15.70;96.70;;;;;;5002405;28;20089;-80
2021/05/16 10:16:23;;;;;;;5.13;1.65;;;15.50;96.30;;;;;;4999895;28;20058;-83
2021/05/16 10:18:52;;;;;;;8.85;2.47;;;15.50;96.30;;;;;;4984397;28;20544;-80
2021/05/16 10:21:23;;;;;;;8.57;2.70;;;15.50;96.10;;;;;;4999194;28;20041;-81
2021/05/16 10:24:11;;;;;;;7.53;2.08;;;15.90;96.30;;;;;;5002200;28;20617;-80
2021/05/16 10:26:38;;;;;;;9.98;1.92;;;15.90;96.60;;;;;;4980950;28;20033;-81
2021/05/16 10:29:06;;;;;;;6.28;1.70;;;16.30;95.60;;;;;;4986349;28;20026;-80
2021/05/16 10:31:46;;;;;;;5.22;1.80;;;16.50;95.00;;;;;;5000235;28;20037;-81
2021/05/16 10:34:26;;;;;;;5.75;1.83;;;16.60;94.80;;;;;;5001610;28;20037;-80
2021/05/16 10:36:56;;;;;;;8.75;2.47;;;16.80;94.40;;;;;;5001301;28;20030;-79
2021/05/16 10:39:43;;;;;;;9.65;1.95;;;16.80;94.30;;;;;;4992992;28;20033;-80
2021/05/16 10:42:33;;;;;;;6.88;1.75;;;16.90;93.40;;;;;;5009164;28;20056;-80
2021/05/16 10:45:07;;;;;;;5.20;1.67;;;16.80;93.60;;;;;;5002814;28;20112;-80
2021/05/16 10:47:47;;;;;;;5.53;1.50;;;16.80;93.30;;;;;;5000813;28;20404;-80
2021/05/16 10:50:31;;;;;;;4.47;1.35;;;16.70;93.10;;;;;;5006366;28;20022;-82
2021/05/16 10:52:59;;;;;;;4.97;1.60;;;16.80;92.90;;;;;;4968512;28;20409;-79
2021/05/16 10:55:27;;;;;;;5.75;1.50;;;16.90;93.40;;;;;;5008522;28;20041;-80
2021/05/16 10:57:53;;;;;;;6.32;1.33;;;17.30;92.60;;;;;;5005461;28;20118;-80
2021/05/16 11:00:22;;;;;;;6.82;1.50;;;17.90;91.40;;;;;;4983978;28;20029;-81
2021/05/16 11:03:09;;;;;;;4.22;1.30;;;17.50;91.10;;;;;;5010144;28;20034;-80
2021/05/16 11:05:50;;;;;;;5.15;1.15;;;18.00;91.20;;;;;;5009262;28;20561;-80
2021/05/16 11:08:16;;;;;;;6.03;1.27;;;17.50;91.80;;;;;;4998657;28;20030;-82
2021/05/16 11:10:52;;;;;;;6.63;1.77;;;17.90;90.50;;;;;;4989656;28;20040;-80
2021/05/16 11:13:31;;;;;;;4.25;1.27;;;17.90;90.60;;;;;;4989701;28;20025;-81
2021/05/16 11:16:07;;;;;;;7.00;1.75;;;18.10;88.70;;;;;;5006200;28;20034;-80
2021/05/16 11:18:36;;;;;;;8.57;1.42;;;18.20;86.80;;;;;;4994390;28;20022;-77
2021/05/16 11:21:07;;;;;;;8.00;1.23;;;18.40;84.60;;;;;;5005651;28;20089;-80
2021/05/16 11:23:39;;;;;;;4.75;1.25;;;18.60;83.00;;;;;;4989305;28;20026;-82
2021/05/16 11:26:12;;;;;;;6.38;1.30;;;18.70;81.00;;;;;;5000206;28;20117;-79
2021/05/16 11:28:45;;;;;;;4.38;1.17;;;18.70;82.40;;;;;;4990105;28;20050;-81
2021/05/16 11:31:18;;;;;;;3.35;1.05;;;18.50;81.70;;;;;;5003544;28;20097;-81
2021/05/16 11:33:46;;;;;;;5.65;2.08;;;18.10;83.30;;;;;;5004048;28;20026;-80
2021/05/16 11:36:14;;;;;;;4.07;1.30;;;18.10;83.90;;;;;;4992492;28;20400;-82
2021/05/16 11:38:47;;;;;;;4.53;1.08;;;18.10;82.80;;;;;;4998597;28;20042;-81
2021/05/16 11:41:39;;;;;;;3.22;1.20;;;17.90;84.90;;;;;;5008353;28;20026;-80
2021/05/16 11:44:10;;;;;;;5.25;1.30;;;18.00;83.90;;;;;;4995502;28;20029;-81
2021/05/16 11:46:43;;;;;;;4.65;1.13;;;18.00;84.70;;;;;;4994705;28;20508;-81
2021/05/16 11:49:11;;;;;;;7.35;1.52;;;18.30;85.00;;;;;;5003378;28;20034;-80
2021/05/16 11:51:37;;;;;;;4.05;1.35;;;18.70;83.20;;;;;;4985127;28;20038;-80
2021/05/16 11:54:13;;;;;;;6.40;0.90;;;20.70;82.00;;;;;;4979781;28;20036;-83
2021/05/16 11:56:45;;;;;;;4.70;1.92;;;18.30;83.60;;;;;;5009343;28;20118;-79
2021/05/16 11:59:11;;;;;;;3.75;1.20;;;18.50;82.50;;;;;;5000117;28;20025;-80
2021/05/16 12:01:42;;;;;;;4.38;1.05;;;18.60;81.80;;;;;;4992380;28;20025;-81
2021/05/16 12:04:14;;;;;;;3.88;0.85;;;18.30;80.40;;;;;;4997139;28;20184;-83
2021/05/16 12:06:52;;;;;;;5.07;1.15;;;19.30;83.50;;;;;;5008699;28;20106;-83
2021/05/16 12:09:19;;;;;;;4.13;1.10;;;17.80;83.60;;;;;;4992834;28;20077;-82
2021/05/16 12:11:51;;;;;;;3.30;0.98;;;18.20;81.90;;;;;;5008649;28;20033;-80
2021/05/16 12:14:17;;;;;;;4.25;1.00;;;18.10;82.30;;;;;;4991451;28;20021;-81
2021/05/16 12:16:53;;;;;;;5.43;1.00;;;18.20;82.50;;;;;;4989009;28;20050;-83
2021/05/16 12:19:24;;;;;;;3.45;1.10;;;17.90;82.70;;;;;;5008706;28;20226;-81
2021/05/16 12:21:55;;;;;;;3.72;1.00;;;19.90;83.50;;;;;;5009199;28;20040;-84
2021/05/16 12:24:29;;;;;;;5.65;1.10;;;17.30;81.90;;;;;;4994602;28;20046;-81
2021/05/16 12:26:55;;;;;;;3.95;1.10;;;17.40;82.70;;;;;;5004480;28;20022;-84
2021/05/16 12:29:21;;;;;;;3.65;1.15;;;17.40;83.30;;;;;;4990512;28;20038;-81
2021/05/16 12:31:47;;;;;;;3.65;1.10;;;17.80;82.30;;;;;;5004968;28;20040;-82
2021/05/16 12:34:15;;;;;;;4.28;1.10;;;17.90;79.30;;;;;;5009813;28;20030;-83
2021/05/16 12:36:45;;;;;;;3.38;1.05;;;18.70;79.70;;;;;;4992963;28;20055;-84
2021/05/16 12:39:10;;;;;;;5.03;1.20;;;18.70;79.40;;;;;;5008479;28;20041;-85
2021/05/16 12:41:36;;;;;;;7.30;1.88;;;18.60;79.30;;;;;;4994996;28;20026;-83
2021/05/16 12:44:24;;;;;;;3.72;1.38;;;17.90;80.50;;;;;;4994214;28;20094;-82
2021/05/16 12:46:51;;;;;;;3.33;1.17;;;18.30;78.20;;;;;;4986792;28;20064;-83
2021/05/16 12:49:23;;;;;;;5.45;1.80;;;18.40;78.40;;;;;;4973645;28;20935;-82
2021/05/16 12:52:07;;;;;;;3.97;1.42;;;18.70;76.10;;;;;;4970890;28;20058;-84
2021/05/16 12:54:37;;;;;;;3.38;1.10;;;19.10;71.10;;;;;;5010531;28;20030;-85